AMM weather

Queen Alia International Airport
Amman, Amman Governorate, Jordan

Public forecast

Using degrees Celsius for public forecast. Weather courtesy of forecast.io.

METAR (pilot weather report)

Retrieved 2019/05/20 02:00 UTC (25 minutes ago):

OJAI 200200Z 00000KT 6000 NSC 11/06 Q1015 NOSIG

TAF (pilot weather forecast)

Forecast is more than 12 hours old.

Retrieved 2019/05/19 00:15 UTC (1 day ago):

TAF TAF OJAI 192300Z 2000/2106 29010KT 6000 NSC